Time;durP1;ratioP1;P1;durP2;ratioP2;P2;SDS_P1;SDS_P2;PMS_P1;PMS_P2;Temp;Humidity;BMP_temperature;BMP_pressure;BME280_temperature;BME280_humidity;BME280_pressure;Samples;Min_cycle;Max_cycle;Signal;HPM_P1;HPM_P2
2021/09/05 00:02:28;;;;;;;3.13;1.20;;;25.70;98.70;;;;;;6234558;22;20246;-95
2021/09/05 00:04:59;;;;;;;4.53;1.30;;;25.70;98.70;;;;;;6218083;22;20178;-95
2021/09/05 00:07:30;;;;;;;1.00;0.90;;;25.50;98.80;;;;;;6242443;23;20180;-96
2021/09/05 00:10:01;;;;;;;4.50;1.10;;;25.50;99.20;;;;;;6242356;22;20252;-93
2021/09/05 00:12:35;;;;;;;3.20;1.10;;;25.20;99.50;;;;;;6240619;23;20184;-96
2021/09/05 00:15:07;;;;;;;4.43;1.30;;;25.30;99.50;;;;;;6225692;23;20169;-96
2021/09/05 00:17:39;;;;;;;1.10;1.00;;;25.30;99.60;;;;;;6221065;23;20176;-96
2021/09/05 00:20:12;;;;;;;1.57;0.93;;;25.40;99.90;;;;;;6224247;23;20165;-96
2021/09/05 00:22:43;;;;;;;1.13;0.97;;;25.40;99.90;;;;;;6240829;23;20173;-96
2021/09/05 00:25:15;;;;;;;2.30;1.10;;;25.20;99.90;;;;;;6242229;23;20168;-96
2021/09/05 00:27:48;;;;;;;2.27;1.10;;;25.00;99.90;;;;;;6235305;23;20492;-96
2021/09/05 00:30:22;;;;;;;1.43;1.00;;;25.00;99.90;;;;;;6221721;23;20172;-96
2021/09/05 00:32:54;;;;;;;1.83;0.90;;;25.10;99.90;;;;;;6223061;23;20180;-96
2021/09/05 00:35:25;;;;;;;1.53;0.83;;;25.10;99.90;;;;;;6221480;23;20187;-96
2021/09/05 00:37:59;;;;;;;0.80;0.80;;;25.10;99.90;;;;;;6222329;23;20224;-96
2021/09/05 00:40:30;;;;;;;1.27;0.97;;;25.00;99.90;;;;;;6194132;23;20192;-96
2021/09/05 00:43:03;;;;;;;1.80;0.80;;;24.90;99.90;;;;;;6221786;23;20192;-96
2021/09/05 00:45:35;;;;;;;1.83;1.20;;;24.80;99.90;;;;;;6195458;23;20203;-96
2021/09/05 00:48:08;;;;;;;1.13;0.90;;;24.70;99.90;;;;;;6221505;23;20191;-96
2021/09/05 00:50:40;;;;;;;1.77;1.00;;;24.50;99.90;;;;;;6222866;23;20168;-96
2021/09/05 00:53:11;;;;;;;1.43;1.07;;;24.40;99.90;;;;;;6222970;23;20176;-96
2021/09/05 00:55:42;;;;;;;1.80;0.90;;;24.40;99.90;;;;;;6223815;23;20227;-96
2021/09/05 00:58:17;;;;;;;1.37;1.00;;;24.50;99.90;;;;;;6223062;23;20224;-96
2021/09/05 01:00:49;;;;;;;1.00;0.90;;;24.40;99.90;;;;;;6218841;23;20192;-95
2021/09/05 01:03:20;;;;;;;0.70;0.70;;;24.40;99.90;;;;;;6220787;23;20177;-96
2021/09/05 01:05:51;;;;;;;2.60;0.90;;;24.40;99.90;;;;;;6220476;23;20247;-96
2021/09/05 01:08:23;;;;;;;1.97;1.10;;;24.30;99.90;;;;;;6219914;23;20631;-95
2021/09/05 01:10:55;;;;;;;1.63;0.90;;;24.30;99.90;;;;;;6219070;23;20200;-96
2021/09/05 01:13:28;;;;;;;3.87;0.80;;;24.30;99.90;;;;;;6194477;23;20234;-96
2021/09/05 01:16:00;;;;;;;0.80;0.80;;;24.20;99.90;;;;;;6193911;23;20180;-96
2021/09/05 01:18:31;;;;;;;1.00;0.70;;;24.10;99.90;;;;;;6193953;23;20595;-96
2021/09/05 01:21:02;;;;;;;2.40;0.80;;;24.10;99.90;;;;;;6192729;23;20229;-96
2021/09/05 01:23:33;;;;;;;3.33;0.90;;;24.10;99.90;;;;;;6218450;23;20180;-96
2021/09/05 01:26:06;;;;;;;3.90;1.20;;;24.10;99.90;;;;;;6220169;23;20215;-96
2021/09/05 01:28:40;;;;;;;1.77;1.00;;;24.10;99.90;;;;;;6219644;23;20659;-95
2021/09/05 01:31:11;;;;;;;2.87;0.90;;;24.10;99.90;;;;;;6218020;23;20218;-96
2021/09/05 01:33:43;;;;;;;0.70;0.70;;;24.10;99.90;;;;;;6222333;23;20181;-96
2021/09/05 01:36:14;;;;;;;5.07;1.07;;;24.10;99.90;;;;;;6220135;23;20564;-96
2021/09/05 01:38:45;;;;;;;1.60;1.10;;;24.10;99.90;;;;;;6219376;23;20227;-96
2021/09/05 01:41:16;;;;;;;1.50;0.80;;;24.10;99.90;;;;;;6218422;23;20242;-96
2021/09/05 01:43:51;;;;;;;1.13;0.90;;;24.20;99.90;;;;;;6218843;23;20207;-96
2021/09/05 01:46:22;;;;;;;1.00;0.63;;;24.10;99.90;;;;;;6219786;23;20178;-96
2021/09/05 01:48:53;;;;;;;1.17;0.80;;;24.00;99.90;;;;;;6218728;23;20505;-96
2021/09/05 01:51:25;;;;;;;1.03;0.60;;;23.90;99.90;;;;;;6218457;23;20165;-96
2021/09/05 01:53:57;;;;;;;1.00;0.70;;;23.70;99.90;;;;;;6196458;23;20252;-96
2021/09/05 01:56:30;;;;;;;0.70;0.60;;;23.50;99.90;;;;;;6219313;23;20173;-96
2021/09/05 01:59:06;;;;;;;2.10;0.70;;;23.40;99.90;;;;;;6219529;23;20275;-96
2021/09/05 02:01:38;;;;;;;0.60;0.60;;;23.20;99.90;;;;;;6219533;23;20607;-96
2021/09/05 02:04:13;;;;;;;1.03;0.70;;;23.20;99.90;;;;;;6222151;23;20177;-96
2021/09/05 02:06:44;;;;;;;1.60;0.83;;;23.20;99.90;;;;;;6223189;23;20164;-96
2021/09/05 02:09:15;;;;;;;0.83;0.70;;;23.10;99.90;;;;;;6220048;23;20176;-96
2021/09/05 02:11:51;;;;;;;1.50;1.00;;;23.10;99.90;;;;;;6221291;22;20177;-96
2021/09/05 02:14:24;;;;;;;1.23;0.83;;;23.00;99.90;;;;;;6219892;23;20175;-96
2021/09/05 02:16:55;;;;;;;1.57;1.00;;;23.00;99.90;;;;;;6219755;23;20183;-96
2021/09/05 02:19:29;;;;;;;1.27;0.90;;;23.00;99.90;;;;;;6219948;23;20238;-93
2021/09/05 02:22:00;;;;;;;3.20;0.90;;;23.00;99.90;;;;;;6218816;23;20180;-95
2021/09/05 02:24:31;;;;;;;1.10;0.80;;;22.90;99.90;;;;;;6218977;23;20619;-95
2021/09/05 02:27:02;;;;;;;1.17;0.70;;;22.80;99.90;;;;;;6223425;23;20180;-95
2021/09/05 02:29:35;;;;;;;0.80;0.80;;;22.80;99.90;;;;;;6223340;23;20180;-96
2021/09/05 02:32:07;;;;;;;2.33;0.80;;;22.80;99.90;;;;;;6219282;23;20231;-95
2021/09/05 02:34:38;;;;;;;0.80;0.80;;;22.60;99.90;;;;;;6220569;23;20222;-96
2021/09/05 02:37:10;;;;;;;2.47;0.90;;;22.50;99.90;;;;;;6220891;23;20180;-96
2021/09/05 02:39:42;;;;;;;3.30;0.97;;;22.30;99.90;;;;;;6221182;23;20270;-96
2021/09/05 02:42:14;;;;;;;2.10;1.00;;;22.10;99.90;;;;;;6208365;23;20172;-96
2021/09/05 02:44:49;;;;;;;1.67;0.80;;;22.00;99.90;;;;;;6240952;23;20172;-96
2021/09/05 02:47:20;;;;;;;2.50;1.10;;;21.80;99.90;;;;;;6240052;23;20172;-96
2021/09/05 02:49:52;;;;;;;3.10;1.10;;;21.70;99.90;;;;;;6222443;23;20187;-96
2021/09/05 02:52:24;;;;;;;5.23;1.20;;;21.50;99.90;;;;;;6194300;23;20203;-96
2021/09/05 02:54:56;;;;;;;1.40;1.30;;;21.40;99.90;;;;;;6219845;23;20191;-95
2021/09/05 02:57:27;;;;;;;3.23;1.17;;;21.20;99.90;;;;;;6219624;23;20180;-95
2021/09/05 03:00:00;;;;;;;1.13;1.00;;;21.00;99.90;;;;;;6219219;23;20213;-94
2021/09/05 03:02:31;;;;;;;3.43;1.23;;;20.80;99.90;;;;;;6218031;23;20195;-96
2021/09/05 03:05:03;;;;;;;4.43;1.53;;;20.70;99.90;;;;;;6196083;23;20171;-95
2021/09/05 03:07:36;;;;;;;1.50;1.40;;;20.60;99.90;;;;;;6221990;23;20164;-96
2021/09/05 03:10:08;;;;;;;3.47;1.37;;;20.40;99.90;;;;;;6195694;23;20176;-96
2021/09/05 03:12:40;;;;;;;2.50;1.10;;;20.40;99.90;;;;;;6222163;23;20176;-96
2021/09/05 03:15:14;;;;;;;2.70;1.53;;;20.40;99.90;;;;;;6226445;23;20182;-96
2021/09/05 03:17:45;;;;;;;2.93;1.37;;;20.30;99.90;;;;;;6223278;23;20188;-96
2021/09/05 03:20:17;;;;;;;1.83;1.30;;;20.20;99.90;;;;;;6198796;23;20192;-96
2021/09/05 03:22:48;;;;;;;3.00;1.30;;;20.10;99.90;;;;;;6228624;23;20180;-96
2021/09/05 03:25:21;;;;;;;3.37;1.50;;;20.10;99.90;;;;;;6224003;23;20203;-96
2021/09/05 03:27:52;;;;;;;3.00;1.43;;;20.10;99.90;;;;;;6223723;23;20191;-96
2021/09/05 03:30:26;;;;;;;2.77;1.60;;;20.10;99.90;;;;;;6198070;23;20611;-96
2021/09/05 03:32:58;;;;;;;4.40;1.40;;;20.00;99.90;;;;;;6224806;23;20187;-96
2021/09/05 03:35:30;;;;;;;3.10;1.93;;;20.10;99.90;;;;;;6227113;23;20177;-95
2021/09/05 03:38:02;;;;;;;2.63;1.73;;;20.00;99.90;;;;;;6232734;23;20172;-95
2021/09/05 03:40:34;;;;;;;2.60;1.87;;;19.90;99.90;;;;;;6240165;22;20211;-93
2021/09/05 03:43:05;;;;;;;3.20;1.70;;;19.90;99.90;;;;;;6241313;23;20176;-96
2021/09/05 03:45:38;;;;;;;2.77;1.80;;;19.80;99.90;;;;;;6241236;22;20180;-95
2021/09/05 03:48:10;;;;;;;3.23;1.50;;;19.70;99.90;;;;;;6241153;22;20169;-94
2021/09/05 03:50:41;;;;;;;3.80;1.70;;;19.60;99.90;;;;;;6236995;23;20176;-95
2021/09/05 03:53:12;;;;;;;5.13;1.97;;;19.60;99.90;;;;;;6231824;23;20222;-95
2021/09/05 03:55:43;;;;;;;2.90;1.80;;;19.60;99.90;;;;;;6216310;23;20199;-94
2021/09/05 03:58:15;;;;;;;2.40;1.73;;;19.70;99.90;;;;;;6219201;23;20207;-95
2021/09/05 04:00:50;;;;;;;2.97;1.47;;;19.60;99.90;;;;;;6219667;23;20296;-96
2021/09/05 04:03:23;;;;;;;3.23;1.50;;;19.50;99.90;;;;;;6220977;23;20196;-95
2021/09/05 04:05:55;;;;;;;3.10;1.60;;;19.50;99.90;;;;;;6221014;23;20184;-96
2021/09/05 04:08:32;;;;;;;5.93;1.53;;;19.50;99.90;;;;;;6219918;23;20193;-96
2021/09/05 04:11:04;;;;;;;2.00;1.50;;;19.40;99.90;;;;;;6219404;23;20191;-96
2021/09/05 04:13:36;;;;;;;3.13;1.70;;;19.50;99.90;;;;;;6220694;23;20195;-96
2021/09/05 04:16:10;;;;;;;3.00;1.50;;;19.50;99.90;;;;;;6220022;23;20215;-96
2021/09/05 04:18:42;;;;;;;2.67;1.73;;;19.60;99.90;;;;;;6220997;23;20165;-96
2021/09/05 04:21:15;;;;;;;2.37;1.40;;;19.50;99.90;;;;;;6219249;22;20208;-96
2021/09/05 04:23:46;;;;;;;2.23;1.57;;;19.40;99.90;;;;;;6220823;23;20363;-96
2021/09/05 04:26:19;;;;;;;6.30;1.70;;;19.50;99.90;;;;;;6220660;23;20603;-96
2021/09/05 04:28:51;;;;;;;2.83;1.67;;;19.50;99.90;;;;;;6221612;23;20189;-96
2021/09/05 04:31:23;;;;;;;2.90;1.67;;;19.40;99.90;;;;;;6218966;23;20192;-94
2021/09/05 04:33:55;;;;;;;3.50;1.60;;;19.20;99.90;;;;;;6220785;23;20176;-95
2021/09/05 04:36:26;;;;;;;2.07;1.87;;;19.10;99.90;;;;;;6219391;23;20189;-95
2021/09/05 04:38:58;;;;;;;3.50;1.40;;;19.10;99.90;;;;;;6195264;23;20226;-95
2021/09/05 04:41:29;;;;;;;5.33;1.40;;;19.10;99.90;;;;;;6218960;23;20223;-93
2021/09/05 04:44:01;;;;;;;3.13;1.50;;;19.10;99.90;;;;;;6220033;23;20227;-94
2021/09/05 04:46:34;;;;;;;3.67;1.70;;;19.10;99.90;;;;;;6221061;23;20165;-93
2021/09/05 04:49:05;;;;;;;4.27;1.77;;;19.00;99.90;;;;;;6220764;23;20192;-94
2021/09/05 04:51:36;;;;;;;3.93;1.80;;;18.90;99.90;;;;;;6219560;23;20248;-95
2021/09/05 04:54:09;;;;;;;2.57;1.60;;;18.80;99.90;;;;;;6220606;23;20180;-95
2021/09/05 04:56:41;;;;;;;2.43;1.90;;;18.70;99.90;;;;;;6194199;23;20176;-93
2021/09/05 04:59:13;;;;;;;5.83;2.07;;;18.80;99.90;;;;;;6220068;23;20177;-94
2021/09/05 05:01:45;;;;;;;2.43;1.80;;;18.80;99.90;;;;;;6235988;23;20196;-94
2021/09/05 05:04:19;;;;;;;2.83;1.97;;;18.80;99.90;;;;;;6240173;22;20182;-96
2021/09/05 05:06:51;;;;;;;2.70;1.73;;;18.70;99.90;;;;;;6235503;22;20278;-96
2021/09/05 05:09:22;;;;;;;2.90;1.90;;;18.60;99.90;;;;;;6221519;23;20247;-96
2021/09/05 05:11:53;;;;;;;3.13;2.00;;;18.70;99.90;;;;;;6220364;23;20180;-96
2021/09/05 05:14:25;;;;;;;2.43;2.20;;;18.70;99.90;;;;;;6221982;23;20176;-96
2021/09/05 05:17:00;;;;;;;2.53;1.93;;;18.70;99.90;;;;;;6198761;23;20200;-96
2021/09/05 05:19:31;;;;;;;2.83;2.27;;;18.80;99.90;;;;;;6220556;23;20172;-96
2021/09/05 05:22:02;;;;;;;3.63;2.07;;;18.80;99.90;;;;;;6219509;23;20207;-96
2021/09/05 05:24:34;;;;;;;5.43;2.27;;;18.70;99.90;;;;;;6220457;23;20266;-96
2021/09/05 05:27:07;;;;;;;4.13;1.90;;;18.70;99.90;;;;;;6222212;23;20192;-96
2021/09/05 05:29:38;;;;;;;2.87;2.17;;;18.70;99.90;;;;;;6197499;23;20183;-96
2021/09/05 05:32:12;;;;;;;3.20;2.20;;;18.70;99.90;;;;;;6222837;23;20196;-95
2021/09/05 05:34:44;;;;;;;3.37;2.50;;;18.70;99.90;;;;;;6223990;23;20177;-94
2021/09/05 05:37:14;;;;;;;3.83;1.93;;;18.70;99.90;;;;;;6221315;23;20176;-95
2021/09/05 05:39:48;;;;;;;4.73;1.90;;;18.80;99.90;;;;;;6219857;23;20223;-95
2021/09/05 05:42:19;;;;;;;3.00;1.97;;;18.80;99.90;;;;;;6219801;23;20200;-95
2021/09/05 05:44:51;;;;;;;2.60;2.07;;;18.80;99.90;;;;;;6220243;23;20169;-95
2021/09/05 05:47:26;;;;;;;2.83;2.10;;;18.80;99.90;;;;;;6220881;23;20192;-94
2021/09/05 05:49:58;;;;;;;5.03;1.80;;;18.70;99.90;;;;;;6221068;23;20195;-94
2021/09/05 05:52:29;;;;;;;5.30;2.20;;;18.60;99.90;;;;;;6220593;23;20619;-95
2021/09/05 05:55:01;;;;;;;2.20;1.90;;;18.50;99.90;;;;;;6236765;23;20165;-94
2021/09/05 05:57:33;;;;;;;2.27;1.90;;;18.40;99.90;;;;;;6215241;23;20164;-94
2021/09/05 06:00:04;;;;;;;2.50;2.23;;;18.30;99.90;;;;;;6241063;22;20201;-94
2021/09/05 06:02:39;;;;;;;3.03;2.27;;;18.30;99.90;;;;;;6240716;23;20319;-96
2021/09/05 06:05:12;;;;;;;4.43;2.30;;;18.30;99.90;;;;;;6211343;23;20168;-96
2021/09/05 06:07:43;;;;;;;2.90;2.13;;;18.30;99.90;;;;;;6221336;23;20212;-96
2021/09/05 06:10:15;;;;;;;2.50;2.30;;;18.20;99.90;;;;;;6221152;23;20198;-96
2021/09/05 06:12:49;;;;;;;3.80;1.97;;;18.30;99.90;;;;;;6221658;23;20179;-95
2021/09/05 06:15:21;;;;;;;3.87;2.30;;;18.40;99.90;;;;;;6221596;23;20560;-96
2021/09/05 06:17:55;;;;;;;3.17;2.30;;;18.40;99.90;;;;;;6194281;23;20172;-94
2021/09/05 06:20:27;;;;;;;4.97;2.07;;;18.50;99.90;;;;;;6218669;23;20207;-96
2021/09/05 06:23:00;;;;;;;3.03;2.50;;;18.50;99.90;;;;;;6195087;23;20635;-96
2021/09/05 06:25:32;;;;;;;4.23;2.00;;;18.60;99.90;;;;;;6220034;23;20175;-95
2021/09/05 06:28:03;;;;;;;3.33;2.23;;;18.60;99.90;;;;;;6220752;23;20176;-96
2021/09/05 06:30:34;;;;;;;3.90;1.80;;;18.70;99.90;;;;;;6219428;23;20180;-96
2021/09/05 06:33:11;;;;;;;5.27;1.87;;;18.70;99.90;;;;;;6220094;23;20200;-95
2021/09/05 06:35:42;;;;;;;3.23;2.00;;;18.70;99.90;;;;;;6220037;23;20172;-93
2021/09/05 06:38:13;;;;;;;7.37;2.20;;;18.80;99.90;;;;;;6220004;23;20524;-94
2021/09/05 06:40:44;;;;;;;2.70;2.10;;;18.70;99.90;;;;;;6218773;23;20287;-95
2021/09/05 06:43:16;;;;;;;3.50;2.27;;;18.70;99.90;;;;;;6235884;23;20152;-94
2021/09/05 06:45:47;;;;;;;5.37;2.30;;;18.50;99.90;;;;;;6234732;23;20191;-95
2021/09/05 06:48:40;;;;;;;3.13;2.30;;;18.30;99.90;;;;;;6235609;23;20176;-94
2021/09/05 06:51:13;;;;;;;3.93;2.40;;;18.30;99.90;;;;;;6223979;23;20180;-95
2021/09/05 06:53:44;;;;;;;2.67;2.47;;;18.30;99.90;;;;;;6226795;23;20180;-95
2021/09/05 06:56:15;;;;;;;2.53;2.30;;;18.40;99.90;;;;;;6225451;23;20177;-95
2021/09/05 06:58:47;;;;;;;7.17;2.50;;;18.30;99.90;;;;;;6227085;23;20168;-95
2021/09/05 07:01:20;;;;;;;4.73;2.27;;;18.30;99.90;;;;;;6226290;23;20207;-96
2021/09/05 07:03:54;;;;;;;4.93;2.57;;;18.40;99.90;;;;;;6228892;23;20180;-96
2021/09/05 07:06:26;;;;;;;6.10;2.47;;;18.30;99.90;;;;;;6199915;23;20203;-95
2021/09/05 07:08:58;;;;;;;3.20;2.47;;;18.30;99.90;;;;;;6228017;23;20209;-95
2021/09/05 07:11:30;;;;;;;5.87;2.60;;;18.30;99.90;;;;;;6226564;23;20255;-96
2021/09/05 07:14:01;;;;;;;6.30;2.57;;;18.20;99.90;;;;;;6225389;23;20233;-95
2021/09/05 07:16:33;;;;;;;5.63;2.67;;;18.30;99.90;;;;;;6224773;22;20203;-96
2021/09/05 07:19:06;;;;;;;3.33;2.47;;;18.30;99.90;;;;;;6237183;22;20164;-96
2021/09/05 07:21:41;;;;;;;3.83;2.97;;;18.30;99.90;;;;;;6240268;22;20195;-95
2021/09/05 07:24:12;;;;;;;4.53;2.70;;;18.30;99.90;;;;;;6234509;22;20161;-95
2021/09/05 07:26:44;;;;;;;5.40;2.97;;;18.20;99.90;;;;;;6223709;23;20219;-95
2021/09/05 07:29:17;;;;;;;3.47;2.70;;;18.20;99.90;;;;;;6222527;23;20513;-96
2021/09/05 07:31:49;;;;;;;3.83;2.67;;;18.10;99.90;;;;;;6195451;23;20165;-94
2021/09/05 07:34:22;;;;;;;3.60;3.20;;;18.10;99.90;;;;;;6225226;23;20169;-94
2021/09/05 07:36:54;;;;;;;5.80;2.77;;;18.00;99.90;;;;;;6199698;23;20267;-95
2021/09/05 07:39:25;;;;;;;4.13;2.93;;;18.00;99.90;;;;;;6225010;23;20615;-95
2021/09/05 07:42:01;;;;;;;4.47;2.80;;;18.00;99.90;;;;;;6220473;23;20228;-95
2021/09/05 07:44:32;;;;;;;5.20;3.13;;;18.00;99.90;;;;;;6221072;23;20499;-94
2021/09/05 07:47:04;;;;;;;3.63;3.17;;;18.00;99.90;;;;;;6196391;23;20203;-94
2021/09/05 07:49:37;;;;;;;5.93;3.00;;;17.90;99.90;;;;;;6221121;23;20199;-94
2021/09/05 07:52:09;;;;;;;4.53;3.30;;;17.90;99.90;;;;;;6220540;23;20165;-94
2021/09/05 07:54:40;;;;;;;5.47;2.97;;;17.80;99.90;;;;;;6221437;23;20626;-95
2021/09/05 07:57:12;;;;;;;3.67;3.20;;;17.80;99.90;;;;;;6221414;23;20180;-94
2021/09/05 07:59:43;;;;;;;3.57;3.20;;;17.90;99.90;;;;;;6221214;23;20181;-94
2021/09/05 08:02:14;;;;;;;6.50;3.43;;;17.80;99.90;;;;;;6220424;23;20216;-96
2021/09/05 08:04:47;;;;;;;4.67;3.33;;;17.80;99.90;;;;;;6221370;23;20227;-96
2021/09/05 08:07:18;;;;;;;4.90;3.80;;;17.80;99.90;;;;;;6220986;23;20196;-96
2021/09/05 08:09:50;;;;;;;7.57;3.33;;;17.80;99.90;;;;;;6221111;23;20172;-95
2021/09/05 08:12:22;;;;;;;5.97;3.53;;;17.90;99.90;;;;;;6194891;23;20176;-96
2021/09/05 08:14:54;;;;;;;4.17;3.30;;;17.90;99.90;;;;;;6221843;23;20169;-96
2021/09/05 08:17:25;;;;;;;6.70;3.10;;;17.90;99.90;;;;;;6222053;23;20175;-96
2021/09/05 08:20:01;;;;;;;5.47;3.50;;;18.00;99.90;;;;;;6196431;23;20219;-95
2021/09/05 08:22:32;;;;;;;4.53;3.20;;;17.90;99.90;;;;;;6220300;23;20266;-96
2021/09/05 08:25:04;;;;;;;9.37;3.73;;;18.00;99.90;;;;;;6220928;23;20559;-96
2021/09/05 08:27:35;;;;;;;8.37;3.30;;;17.90;99.90;;;;;;6220761;23;20192;-96
2021/09/05 08:30:08;;;;;;;3.70;3.37;;;18.00;99.90;;;;;;6221595;23;20176;-96
2021/09/05 08:32:41;;;;;;;5.23;3.57;;;18.00;99.90;;;;;;6197265;23;20218;-94
2021/09/05 08:35:15;;;;;;;7.77;3.63;;;17.90;99.90;;;;;;6222011;23;20180;-95
2021/09/05 08:37:47;;;;;;;3.87;3.57;;;17.80;99.90;;;;;;6223395;23;20173;-95
2021/09/05 08:40:18;;;;;;;4.67;3.60;;;17.80;99.90;;;;;;6222644;23;20165;-96
2021/09/05 08:42:49;;;;;;;4.77;3.90;;;17.80;99.90;;;;;;6221601;23;20651;-94
2021/09/05 08:45:20;;;;;;;4.77;3.20;;;17.90;99.90;;;;;;6223289;23;20188;-94
2021/09/05 08:47:52;;;;;;;4.07;3.30;;;17.80;99.90;;;;;;6225783;23;20185;-95
2021/09/05 08:50:27;;;;;;;4.20;3.57;;;17.80;99.90;;;;;;6226237;23;20172;-95
2021/09/05 08:53:00;;;;;;;4.83;3.83;;;17.90;99.90;;;;;;6224357;23;20275;-95
2021/09/05 08:55:32;;;;;;;4.20;3.80;;;17.80;99.90;;;;;;6224663;23;20245;-93
2021/09/05 08:58:04;;;;;;;5.63;3.30;;;17.90;99.90;;;;;;6227473;22;20643;-96
2021/09/05 09:00:36;;;;;;;4.07;3.10;;;17.90;99.90;;;;;;6226402;23;20164;-96
2021/09/05 09:03:08;;;;;;;3.27;2.97;;;18.00;99.90;;;;;;6210538;23;20190;-94
2021/09/05 09:05:43;;;;;;;7.00;3.10;;;18.00;99.90;;;;;;6217242;23;20196;-96
2021/09/05 09:08:16;;;;;;;6.17;2.90;;;18.00;99.90;;;;;;6243138;22;20156;-96
2021/09/05 09:10:51;;;;;;;3.20;2.60;;;18.00;99.90;;;;;;6242794;22;20176;-96
2021/09/05 09:13:31;;;;;;;4.30;2.73;;;18.00;99.90;;;;;;6243101;22;20216;-96
2021/09/05 09:16:09;;;;;;;3.57;2.10;;;18.10;99.90;;;;;;6242514;22;20176;-95
2021/09/05 09:18:43;;;;;;;2.87;2.10;;;18.20;99.90;;;;;;6227776;23;20169;-96
2021/09/05 09:21:20;;;;;;;4.33;2.00;;;18.20;99.90;;;;;;6220040;23;20673;-96
2021/09/05 09:23:52;;;;;;;1.83;1.53;;;18.20;99.90;;;;;;6221451;23;20719;-96
2021/09/05 09:26:23;;;;;;;2.40;1.80;;;18.30;99.90;;;;;;6220539;23;20519;-96
2021/09/05 09:28:56;;;;;;;2.33;1.90;;;18.30;99.90;;;;;;6220424;23;20176;-96
2021/09/05 09:31:28;;;;;;;2.17;1.93;;;18.30;99.90;;;;;;6220320;23;20196;-96
2021/09/05 09:34:02;;;;;;;2.47;1.90;;;18.30;99.90;;;;;;6221785;23;20189;-95
2021/09/05 09:36:35;;;;;;;2.70;1.77;;;18.30;99.90;;;;;;6221406;23;20215;-95
2021/09/05 09:39:10;;;;;;;3.23;1.77;;;18.40;99.90;;;;;;6241082;23;20164;-95
2021/09/05 09:41:44;;;;;;;2.67;1.60;;;18.40;99.90;;;;;;6216091;23;20156;-95
2021/09/05 09:44:16;;;;;;;2.60;1.70;;;18.40;99.90;;;;;;6235572;22;20205;-96
2021/09/05 09:46:48;;;;;;;2.40;1.93;;;18.40;99.90;;;;;;6225142;23;20223;-95
2021/09/05 09:49:19;;;;;;;2.23;1.70;;;18.40;99.90;;;;;;6221138;23;20479;-95
2021/09/05 09:52:01;;;;;;;2.90;1.63;;;18.40;99.90;;;;;;6194488;23;20180;-96
2021/09/05 09:54:34;;;;;;;1.73;1.60;;;18.40;99.90;;;;;;6194833;23;20180;-95
2021/09/05 09:57:08;;;;;;;2.90;1.67;;;18.50;99.90;;;;;;6219510;23;20623;-96
2021/09/05 09:59:40;;;;;;;1.30;1.20;;;18.50;99.90;;;;;;6220568;23;20554;-95
2021/09/05 10:02:19;;;;;;;1.93;1.67;;;18.50;99.90;;;;;;6219405;23;20176;-96
2021/09/05 10:04:52;;;;;;;2.10;1.70;;;18.50;99.90;;;;;;6220477;23;20196;-96
2021/09/05 10:07:26;;;;;;;2.03;1.73;;;18.40;99.90;;;;;;6194562;23;20529;-96
2021/09/05 10:09:58;;;;;;;1.70;1.60;;;18.40;99.90;;;;;;6220015;23;20176;-96
2021/09/05 10:12:29;;;;;;;3.13;1.80;;;18.50;99.90;;;;;;6219642;23;20197;-96
2021/09/05 10:15:03;;;;;;;1.93;1.53;;;18.50;99.90;;;;;;6220701;23;20473;-96
2021/09/05 10:17:35;;;;;;;2.07;1.87;;;18.50;99.90;;;;;;6220572;23;20248;-96
2021/09/05 10:20:08;;;;;;;2.07;1.50;;;18.40;99.90;;;;;;6220714;23;20287;-96
2021/09/05 10:22:45;;;;;;;2.67;1.53;;;18.40;99.90;;;;;;6219751;23;20326;-96
2021/09/05 10:25:19;;;;;;;3.87;1.83;;;18.40;99.90;;;;;;6220788;23;20179;-96
2021/09/05 10:27:51;;;;;;;2.77;1.47;;;18.40;99.90;;;;;;6220437;23;20172;-96
2021/09/05 10:30:24;;;;;;;1.80;1.60;;;18.40;99.90;;;;;;6219832;23;20183;-96
2021/09/05 10:32:59;;;;;;;2.03;1.70;;;18.40;99.90;;;;;;6220430;23;20199;-96
2021/09/05 10:35:48;;;;;;;2.43;1.80;;;18.40;99.90;;;;;;6220585;23;20175;-95
2021/09/05 10:38:25;;;;;;;2.63;1.70;;;18.30;99.90;;;;;;6221696;23;20238;-94
2021/09/05 10:40:58;;;;;;;2.37;1.53;;;18.30;99.90;;;;;;6218673;23;20180;-94
2021/09/05 10:43:56;;;;;;;4.57;1.70;;;18.40;99.90;;;;;;6222155;23;20203;-94
2021/09/05 10:46:33;;;;;;;4.40;1.63;;;18.40;99.90;;;;;;6220103;23;20165;-95
2021/09/05 10:49:06;;;;;;;1.90;1.50;;;18.50;99.90;;;;;;6219988;23;20395;-95
2021/09/05 10:51:40;;;;;;;3.43;1.77;;;18.50;99.90;;;;;;6221609;23;20183;-94
2021/09/05 10:54:21;;;;;;;2.33;1.60;;;18.50;99.90;;;;;;6221826;23;20180;-95
2021/09/05 10:56:54;;;;;;;1.70;1.60;;;18.40;99.90;;;;;;6223935;23;20169;-95
2021/09/05 10:59:26;;;;;;;1.63;1.50;;;18.40;99.90;;;;;;6222306;23;20183;-95
2021/09/05 11:02:02;;;;;;;2.20;1.60;;;18.40;99.90;;;;;;6218782;23;20192;-95
2021/09/05 11:04:46;;;;;;;2.63;1.63;;;18.40;99.90;;;;;;6220670;23;20210;-95
2021/09/05 11:07:38;;;;;;;2.40;1.87;;;18.40;99.90;;;;;;6221687;23;20172;-96
2021/09/05 11:10:12;;;;;;;3.37;1.80;;;18.40;99.90;;;;;;6215986;23;20573;-96
2021/09/05 11:12:44;;;;;;;1.67;1.53;;;18.40;99.90;;;;;;6225216;23;20168;-96
2021/09/05 11:15:24;;;;;;;1.50;1.40;;;18.40;99.90;;;;;;6222100;23;20591;-96
2021/09/05 11:18:00;;;;;;;2.37;1.67;;;18.40;99.90;;;;;;6228319;22;20198;-96
2021/09/05 11:20:33;;;;;;;1.40;1.30;;;18.40;99.90;;;;;;6198453;23;20495;-96
2021/09/05 11:23:04;;;;;;;3.13;1.50;;;18.50;99.90;;;;;;6232947;22;20203;-96
2021/09/05 11:25:42;;;;;;;3.23;1.53;;;18.50;99.90;;;;;;6241926;22;20157;-96
2021/09/05 11:28:13;;;;;;;2.13;1.60;;;18.50;99.90;;;;;;6241124;23;20163;-96
2021/09/05 11:31:03;;;;;;;3.03;1.80;;;18.50;99.90;;;;;;6242222;22;20180;-96
2021/09/05 11:33:34;;;;;;;2.90;1.50;;;18.50;99.90;;;;;;6235483;22;20212;-96
2021/09/05 11:36:10;;;;;;;2.00;1.43;;;18.50;99.90;;;;;;6243872;22;20228;-96
2021/09/05 11:38:41;;;;;;;1.73;1.63;;;18.50;99.90;;;;;;6243607;22;20179;-96
2021/09/05 11:41:14;;;;;;;3.37;1.70;;;18.50;99.90;;;;;;6241413;22;20228;-96
2021/09/05 11:43:46;;;;;;;2.00;1.77;;;18.50;99.90;;;;;;6233811;23;20208;-96
2021/09/05 11:46:18;;;;;;;1.60;1.50;;;18.50;99.90;;;;;;6199553;23;20169;-96
2021/09/05 11:48:57;;;;;;;2.13;1.60;;;18.50;99.90;;;;;;6203694;23;20169;-93
2021/09/05 11:51:29;;;;;;;1.33;1.23;;;18.50;99.90;;;;;;6230468;23;20176;-93
2021/09/05 11:54:01;;;;;;;2.40;1.40;;;18.40;99.90;;;;;;6242514;23;20182;-95
2021/09/05 11:56:35;;;;;;;1.83;1.40;;;18.40;99.90;;;;;;6217304;23;20163;-94
2021/09/05 11:59:14;;;;;;;1.67;1.57;;;18.30;99.90;;;;;;6242905;22;20191;-94
2021/09/05 12:01:50;;;;;;;2.37;1.50;;;18.30;99.90;;;;;;6238230;22;20188;-95
2021/09/05 12:04:22;;;;;;;2.20;1.70;;;18.20;99.90;;;;;;6235654;23;20246;-94
2021/09/05 12:06:53;;;;;;;2.37;1.43;;;18.20;99.90;;;;;;6234211;23;20634;-96
2021/09/05 12:09:29;;;;;;;1.67;1.30;;;18.20;99.90;;;;;;6233014;22;20207;-96
2021/09/05 12:12:03;;;;;;;1.40;1.30;;;18.20;99.90;;;;;;6234427;23;20182;-95
2021/09/05 12:14:37;;;;;;;2.60;1.30;;;18.20;99.90;;;;;;6240312;23;20180;-96
2021/09/05 12:17:19;;;;;;;2.30;1.43;;;18.30;99.90;;;;;;6239478;23;20161;-94
2021/09/05 12:19:57;;;;;;;2.13;1.43;;;18.30;99.90;;;;;;6240207;23;20169;-95
2021/09/05 12:22:41;;;;;;;1.60;1.40;;;18.30;99.90;;;;;;6226649;23;20202;-96
2021/09/05 12:25:19;;;;;;;1.40;1.30;;;18.30;99.90;;;;;;6225237;23;20196;-96
2021/09/05 12:28:01;;;;;;;1.90;1.23;;;18.30;99.90;;;;;;6225151;23;20187;-95
2021/09/05 12:30:35;;;;;;;1.57;1.17;;;18.30;99.90;;;;;;6223760;23;20169;-95
2021/09/05 12:33:12;;;;;;;1.50;1.30;;;18.30;99.90;;;;;;6223712;23;20188;-96
2021/09/05 12:35:48;;;;;;;1.50;1.20;;;18.30;99.90;;;;;;6223644;23;20176;-92
2021/09/05 12:38:27;;;;;;;2.10;1.23;;;18.30;99.90;;;;;;6222808;23;20623;-94
2021/09/05 12:41:06;;;;;;;1.53;1.20;;;18.30;99.90;;;;;;6221914;23;20180;-94
2021/09/05 12:43:50;;;;;;;2.43;1.33;;;18.30;99.90;;;;;;6223090;23;20176;-94
2021/09/05 12:46:25;;;;;;;1.60;1.50;;;18.20;99.90;;;;;;6222630;23;20192;-94
2021/09/05 12:48:56;;;;;;;2.70;1.60;;;18.20;99.90;;;;;;6223307;23;20176;-94
2021/09/05 12:51:28;;;;;;;1.80;1.10;;;18.20;99.90;;;;;;6222870;23;20172;-94
2021/09/05 12:54:04;;;;;;;1.53;1.43;;;18.30;99.90;;;;;;6223079;23;20191;-94
2021/09/05 12:56:35;;;;;;;1.50;1.40;;;18.30;99.90;;;;;;6222170;23;20206;-95
2021/09/05 12:59:09;;;;;;;3.13;1.60;;;18.20;99.90;;;;;;6220568;23;20184;-95
2021/09/05 13:01:43;;;;;;;1.50;1.40;;;18.20;99.90;;;;;;6195855;23;20188;-96
2021/09/05 13:04:15;;;;;;;1.57;1.47;;;18.10;99.90;;;;;;6222117;23;20168;-95
2021/09/05 13:06:47;;;;;;;1.40;1.30;;;18.10;99.90;;;;;;6221517;23;20169;-96
2021/09/05 13:09:18;;;;;;;1.67;1.43;;;18.10;99.90;;;;;;6220898;23;20248;-96
2021/09/05 13:11:51;;;;;;;4.20;1.60;;;18.10;99.90;;;;;;6221205;23;20497;-95
2021/09/05 13:14:24;;;;;;;2.23;1.20;;;18.10;99.90;;;;;;6221965;23;20619;-95
2021/09/05 13:16:58;;;;;;;1.60;1.50;;;18.00;99.90;;;;;;6222064;23;20512;-95
2021/09/05 13:19:29;;;;;;;2.67;1.40;;;18.10;99.90;;;;;;6196821;23;20192;-95